Time;durP1;ratioP1;P1;durP2;ratioP2;P2;SDS_P1;SDS_P2;PMS_P1;PMS_P2;Temp;Humidity;BMP_temperature;BMP_pressure;BME280_temperature;BME280_humidity;BME280_pressure;Samples;Min_cycle;Max_cycle;Signal;HPM_P1;HPM_P2
2021/09/30 00:01:48;;;;;;;;;1.00;1.00;;;;;-146.80;100.00;64830.25;5057460;28;45468;-63
2021/09/30 00:04:14;;;;;;;;;2.50;1.50;;;;;-146.80;100.00;64830.25;5057292;28;45341;-63
2021/09/30 00:06:39;;;;;;;;;1.50;1.00;;;;;-146.80;100.00;64830.25;5056878;28;45390;-65
2021/09/30 00:09:05;;;;;;;;;1.00;1.00;;;;;-146.80;100.00;64830.25;5057212;28;45215;-65
2021/09/30 00:11:31;;;;;;;;;1.75;1.00;;;;;-146.80;100.00;64830.25;5055614;28;45232;-62
2021/09/30 00:33:06;;;;;;;;;3.50;1.25;;;;;-146.80;100.00;64830.25;5056658;28;45355;-66
2021/09/30 00:35:42;;;;;;;;;0.75;0.50;;;;;-146.80;100.00;64830.25;5055333;28;45354;-63
2021/09/30 00:41:07;;;;;;;;;3.25;1.00;;;;;-146.80;100.00;64830.25;5056665;28;45339;-64
2021/09/30 00:46:24;;;;;;;;;2.00;0.00;;;;;-146.80;100.00;64830.25;5056657;28;45331;-64
2021/09/30 00:49:06;;;;;;;;;5.00;1.00;;;;;-146.80;100.00;64830.25;5056327;28;46541;-65
2021/09/30 01:46:47;;;;;;;;;3.00;2.75;;;;;-146.80;100.00;64830.25;5055318;28;45311;-70
2021/09/30 01:52:59;;;;;;;;;1.25;1.00;;;;;-146.80;100.00;64830.25;5055623;28;45425;-69
2021/09/30 03:00:36;;;;;;;;;3.50;2.00;;;;;-146.80;100.00;64830.25;5057732;28;45384;-67
2021/09/30 03:03:03;;;;;;;;;2.00;1.00;;;;;-146.80;100.00;64830.25;5057780;28;45415;-70
2021/09/30 03:05:29;;;;;;;;;2.75;2.00;;;;;-146.80;100.00;64830.25;5057913;28;45402;-70
2021/09/30 03:07:56;;;;;;;;;1.00;1.00;;;;;-146.80;100.00;64830.25;5056740;28;45383;-64
2021/09/30 03:10:23;;;;;;;;;0.50;0.00;;;;;-146.80;100.00;64830.25;5057787;28;45439;-63
2021/09/30 03:12:50;;;;;;;;;0.00;0.00;;;;;-146.80;100.00;64830.25;5057745;28;45235;-64
2021/09/30 03:18:11;;;;;;;;;2.75;1.00;;;;;-146.80;100.00;64830.25;5057682;28;45366;-63
2021/09/30 03:23:28;;;;;;;;;2.50;1.25;;;;;-146.80;100.00;64830.25;5057618;28;45405;-65
2021/09/30 03:25:54;;;;;;;;;1.75;0.50;;;;;-146.80;100.00;64830.25;5057503;28;45280;-63
2021/09/30 03:28:23;;;;;;;;;1.75;1.75;;;;;-146.80;100.00;64830.25;5057798;28;45405;-64
2021/09/30 03:30:53;;;;;;;;;1.00;1.00;;;;;-146.80;100.00;64830.25;5057336;28;46468;-63
2021/09/30 03:33:19;;;;;;;;;3.00;1.50;;;;;-146.80;100.00;64830.25;5055812;28;45889;-63
2021/09/30 03:35:45;;;;;;;;;1.00;1.00;;;;;-146.80;100.00;64830.25;5057625;28;45426;-65
2021/09/30 03:38:10;;;;;;;;;1.00;1.00;;;;;-146.80;100.00;64830.25;5057594;28;45228;-65
2021/09/30 03:40:37;;;;;;;;;1.00;1.00;;;;;-146.80;100.00;64830.25;5057211;28;46198;-67
2021/09/30 03:43:04;;;;;;;;;2.00;1.00;;;;;-146.80;100.00;64830.25;5057247;28;45456;-62
2021/09/30 03:45:30;;;;;;;;;3.50;1.00;;;;;-146.80;100.00;64830.25;5057252;28;45181;-64
2021/09/30 03:47:55;;;;;;;;;3.00;1.00;;;;;-146.80;100.00;64830.25;5057342;28;45239;-63
2021/09/30 03:50:24;;;;;;;;;2.75;1.50;;;;;-146.80;100.00;64830.25;5055838;28;46260;-62
2021/09/30 04:00:40;;;;;;;;;3.25;2.00;;;;;-146.80;100.00;64830.25;5056963;28;45771;-62
2021/09/30 04:03:07;;;;;;;;;5.00;3.00;;;;;-146.80;100.00;64830.25;5056937;28;45229;-69
2021/09/30 04:05:34;;;;;;;;;3.00;1.25;;;;;-146.80;100.00;64830.25;5057457;28;45782;-63
2021/09/30 04:07:59;;;;;;;;;2.00;2.00;;;;;-146.80;100.00;64830.25;5057157;28;45572;-65
2021/09/30 04:10:25;;;;;;;;;2.25;1.50;;;;;-146.80;100.00;64830.25;5056931;28;46437;-63
2021/09/30 04:12:51;;;;;;;;;0.00;0.00;;;;;-146.80;100.00;64830.25;5055767;28;45373;-64
2021/09/30 04:15:16;;;;;;;;;1.25;1.25;;;;;-146.80;100.00;64830.25;5057654;28;45290;-64
2021/09/30 04:17:41;;;;;;;;;2.50;2.25;;;;;-146.80;100.00;64830.25;5057396;28;45436;-66
2021/09/30 04:20:07;;;;;;;;;1.00;1.00;;;;;-146.80;100.00;64830.25;5057962;28;45468;-64
2021/09/30 04:22:33;;;;;;;;;3.25;1.00;;;;;-146.80;100.00;64830.25;5057668;28;45384;-62
2021/09/30 04:24:58;;;;;;;;;8.00;8.00;;;;;-146.80;100.00;64830.25;5056766;28;45410;-65
2021/09/30 04:27:23;;;;;;;;;3.75;2.25;;;;;-146.80;100.00;64830.25;5056821;28;45611;-63
2021/09/30 04:29:49;;;;;;;;;2.00;2.00;;;;;-146.80;100.00;64830.25;5038876;28;47215;-64
2021/09/30 04:32:15;;;;;;;;;5.00;5.00;;;;;-146.80;100.00;64830.25;5056807;28;45234;-64
2021/09/30 04:34:40;;;;;;;;;6.75;5.25;;;;;-146.80;100.00;64830.25;5056946;28;45288;-63
2021/09/30 04:37:05;;;;;;;;;8.00;6.00;;;;;-146.80;100.00;64830.25;5056642;28;45220;-65
2021/09/30 04:39:31;;;;;;;;;2.00;2.00;;;;;-146.80;100.00;64830.25;5056303;28;45337;-62
2021/09/30 04:41:57;;;;;;;;;7.50;3.00;;;;;-146.80;100.00;64830.25;5056261;28;45239;-66
2021/09/30 04:44:23;;;;;;;;;3.00;3.00;;;;;-146.80;100.00;64830.25;5056515;28;45422;-63
2021/09/30 04:46:49;;;;;;;;;4.00;3.00;;;;;-146.80;100.00;64830.25;5056987;28;45505;-63
2021/09/30 04:49:14;;;;;;;;;3.00;3.00;;;;;-146.80;100.00;64830.25;5056260;28;45700;-67
2021/09/30 04:51:41;;;;;;;;;5.75;4.00;;;;;-146.80;100.00;64830.25;5055077;28;45946;-63
2021/09/30 04:54:06;;;;;;;;;5.75;5.00;;;;;-146.80;100.00;64830.25;5056257;28;45373;-65
2021/09/30 04:56:32;;;;;;;;;7.25;5.25;;;;;-146.80;100.00;64830.25;5056400;28;45517;-62
2021/09/30 04:58:59;;;;;;;;;5.00;4.00;;;;;-146.80;100.00;64830.25;5055965;28;46180;-66
2021/09/30 05:01:24;;;;;;;;;4.50;4.25;;;;;-146.80;100.00;64830.25;5056214;28;45338;-64
2021/09/30 05:03:50;;;;;;;;;4.75;3.75;;;;;-146.80;100.00;64830.25;5056378;28;45410;-63
2021/09/30 05:06:15;;;;;;;;;5.50;4.50;;;;;-146.80;100.00;64830.25;5070971;28;45655;-64
2021/09/30 05:08:44;;;;;;;;;4.25;4.00;;;;;-146.80;100.00;64830.25;5055704;28;45395;-63
2021/09/30 05:11:09;;;;;;;;;6.25;6.25;;;;;-146.80;100.00;64830.25;5054526;28;45444;-63
2021/09/30 05:13:42;;;;;;;;;6.75;5.00;;;;;-146.80;100.00;64830.25;5056283;28;45385;-64
2021/09/30 05:16:13;;;;;;;;;6.00;4.50;;;;;-146.80;100.00;64830.25;5054678;28;45620;-62
2021/09/30 05:18:44;;;;;;;;;7.50;5.00;;;;;-146.80;100.00;64830.25;5055502;28;46699;-64
2021/09/30 05:21:10;;;;;;;;;8.25;6.00;;;;;-146.80;100.00;64830.25;5055654;28;45478;-65
2021/09/30 05:23:35;;;;;;;;;6.25;4.00;;;;;-146.80;100.00;64830.25;5055731;28;45434;-63
2021/09/30 05:26:01;;;;;;;;;6.75;5.00;;;;;-146.80;100.00;64830.25;5055911;28;45588;-63
2021/09/30 05:28:27;;;;;;;;;5.75;4.50;;;;;-146.80;100.00;64830.25;5055461;28;46222;-62
2021/09/30 05:30:52;;;;;;;;;8.25;6.25;;;;;-146.80;100.00;64830.25;5055684;28;45474;-67
2021/09/30 05:33:20;;;;;;;;;12.00;5.50;;;;;-146.80;100.00;64830.25;5056158;28;45388;-62
2021/09/30 05:35:45;;;;;;;;;4.50;4.00;;;;;-146.80;100.00;64830.25;5056099;28;45553;-64
2021/09/30 05:38:11;;;;;;;;;9.75;6.00;;;;;-146.80;100.00;64830.25;5055253;28;45595;-65
2021/09/30 05:40:36;;;;;;;;;7.75;6.75;;;;;-146.80;100.00;64830.25;5054120;28;45243;-64
2021/09/30 05:43:04;;;;;;;;;4.75;4.75;;;;;-146.80;100.00;64830.25;5055680;28;45244;-63
2021/09/30 05:45:31;;;;;;;;;6.00;5.75;;;;;-146.80;100.00;64830.25;5055796;28;45343;-64
2021/09/30 05:47:57;;;;;;;;;7.00;5.25;;;;;-146.80;100.00;64830.25;5055243;28;46602;-62
2021/09/30 05:50:23;;;;;;;;;7.00;6.00;;;;;-146.80;100.00;64830.25;5055657;28;45461;-64
2021/09/30 05:52:49;;;;;;;;;6.75;5.75;;;;;-146.80;100.00;64830.25;5054568;28;45393;-65
2021/09/30 05:55:14;;;;;;;;;5.75;5.75;;;;;-146.80;100.00;64830.25;5055459;28;45686;-63
2021/09/30 05:57:39;;;;;;;;;6.00;6.00;;;;;-146.80;100.00;64830.25;5053746;28;47331;-66
2021/09/30 06:11:15;;;;;;;;;10.50;7.50;;;;;-146.80;100.00;64830.25;5034917;28;45432;-63
2021/09/30 06:16:15;;;;;;;;;8.00;6.50;;;;;-146.80;100.00;64830.25;5055105;28;45452;-65
2021/09/30 06:18:41;;;;;;;;;9.00;5.00;;;;;-146.80;100.00;64830.25;5054378;28;45523;-67
2021/09/30 06:21:06;;;;;;;;;7.25;6.50;;;;;-146.80;100.00;64830.25;5055097;28;45234;-71
2021/09/30 06:23:31;;;;;;;;;10.50;8.00;;;;;-146.80;100.00;64830.25;5055531;28;45274;-68
2021/09/30 06:25:57;;;;;;;;;9.00;6.75;;;;;-146.80;100.00;64830.25;5055444;28;45292;-70
2021/09/30 06:28:22;;;;;;;;;6.50;6.00;;;;;-146.80;100.00;64830.25;5071025;28;45641;-68
2021/09/30 06:30:48;;;;;;;;;7.00;5.25;;;;;-146.80;100.00;64830.25;5055061;28;45366;-67
2021/09/30 06:33:14;;;;;;;;;7.50;7.50;;;;;-146.80;100.00;64830.25;5055216;28;45348;-68
2021/09/30 06:35:39;;;;;;;;;8.75;7.00;;;;;-146.80;100.00;64830.25;5053903;28;45541;-68
2021/09/30 06:38:04;;;;;;;;;9.00;7.00;;;;;-146.80;100.00;64830.25;5054627;28;47221;-66
2021/09/30 06:40:31;;;;;;;;;13.00;10.50;;;;;-146.80;100.00;64830.25;5054528;28;45360;-67
2021/09/30 06:42:57;;;;;;;;;15.00;10.00;;;;;-146.80;100.00;64830.25;5053397;28;45344;-68
2021/09/30 06:45:23;;;;;;;;;7.75;7.75;;;;;-146.80;100.00;64830.25;5055242;28;45332;-66
2021/09/30 06:47:48;;;;;;;;;12.75;8.50;;;;;-146.80;100.00;64830.25;5054268;28;46445;-66
2021/09/30 06:50:15;;;;;;;;;13.00;9.00;;;;;-146.80;100.00;64830.25;5054880;28;45411;-69
2021/09/30 06:52:44;;;;;;;;;9.50;9.00;;;;;-146.80;100.00;64830.25;5054644;27;45335;-70
2021/09/30 06:55:11;;;;;;;;;9.75;8.50;;;;;-146.80;100.00;64830.25;5054580;28;45577;-68
2021/09/30 06:57:36;;;;;;;;;9.25;8.75;;;;;-146.80;100.00;64830.25;5054227;28;46234;-69
2021/09/30 07:00:06;;;;;;;;;9.25;9.00;;;;;-146.80;100.00;64830.25;5054128;28;45263;-70
2021/09/30 07:02:39;;;;;;;;;14.50;13.00;;;;;-146.80;100.00;64830.25;5054659;28;45851;-67
2021/09/30 07:05:07;;;;;;;;;12.75;11.00;;;;;-146.80;100.00;64830.25;5054488;28;45242;-66
2021/09/30 07:07:34;;;;;;;;;11.00;8.50;;;;;-146.80;100.00;64830.25;5069604;28;46708;-64
2021/09/30 07:09:59;;;;;;;;;11.75;10.25;;;;;-146.80;100.00;64830.25;5054169;28;45446;-65
2021/09/30 07:12:25;;;;;;;;;9.25;8.00;;;;;-146.80;100.00;64830.25;5054608;28;45909;-65
2021/09/30 07:14:50;;;;;;;;;11.75;9.75;;;;;-146.80;100.00;64830.25;5054397;28;45348;-66
2021/09/30 07:17:16;;;;;;;;;11.75;8.25;;;;;-146.80;100.00;64830.25;5069524;28;45444;-68
2021/09/30 07:19:41;;;;;;;;;11.50;7.25;;;;;-146.80;100.00;64830.25;5053362;28;45336;-71
2021/09/30 07:22:08;;;;;;;;;15.50;10.00;;;;;-146.80;100.00;64830.25;5054682;28;45337;-69
2021/09/30 07:24:36;;;;;;;;;13.00;10.25;;;;;-146.80;100.00;64830.25;5054692;28;45331;-66
2021/09/30 07:27:06;;;;;;;;;10.25;10.25;;;;;-146.80;100.00;64830.25;5054012;28;45355;-67
2021/09/30 07:29:32;;;;;;;;;13.25;10.50;;;;;-146.80;100.00;64830.25;5053772;28;45479;-69
2021/09/30 07:31:57;;;;;;;;;9.00;9.00;;;;;-146.80;100.00;64830.25;5058235;28;45327;-70
2021/09/30 07:34:23;;;;;;;;;12.25;11.25;;;;;-146.80;100.00;64830.25;5057973;28;45341;-66
2021/09/30 07:36:49;;;;;;;;;17.75;12.75;;;;;-146.80;100.00;64830.25;5058238;28;46044;-67
2021/09/30 07:39:16;;;;;;;;;15.50;13.25;;;;;-146.80;100.00;64830.25;5057881;28;45444;-67
2021/09/30 07:41:43;;;;;;;;;10.75;10.25;;;;;-146.80;100.00;64830.25;5073081;28;45421;-67
2021/09/30 07:44:08;;;;;;;;;11.00;9.00;;;;;-146.80;100.00;64830.25;5057754;28;45260;-67
2021/09/30 07:46:37;;;;;;;;;14.00;10.00;;;;;-146.80;100.00;64830.25;5056009;28;47731;-64
2021/09/30 07:49:05;;;;;;;;;10.50;10.25;;;;;-146.80;100.00;64830.25;5057668;28;45418;-66
2021/09/30 07:51:30;;;;;;;;;13.50;8.50;;;;;-146.80;100.00;64830.25;5057815;28;45251;-65
2021/09/30 07:53:56;;;;;;;;;10.00;7.75;;;;;-146.80;100.00;64830.25;5057850;28;45556;-64
2021/09/30 07:56:22;;;;;;;;;14.75;13.25;;;;;-146.80;100.00;64830.25;5057368;28;45270;-66
2021/09/30 07:58:48;;;;;;;;;19.50;15.75;;;;;-146.80;100.00;64830.25;5057397;28;45235;-68
2021/09/30 08:01:13;;;;;;;;;18.75;12.75;;;;;-146.80;100.00;64830.25;5057257;28;45255;-67
2021/09/30 08:03:38;;;;;;;;;13.75;12.75;;;;;-146.80;100.00;64830.25;5057541;28;45219;-66
2021/09/30 08:06:04;;;;;;;;;14.00;12.25;;;;;-146.80;100.00;64830.25;5057755;28;45994;-71
2021/09/30 08:08:30;;;;;;;;;14.00;10.75;;;;;-146.80;100.00;64830.25;5057935;28;45559;-69
2021/09/30 08:10:55;;;;;;;;;11.00;9.50;;;;;-146.80;100.00;64830.25;5058375;28;45363;-67
2021/09/30 08:13:21;;;;;;;;;12.25;11.00;;;;;-146.80;100.00;64830.25;5057596;28;45391;-66
2021/09/30 08:15:46;;;;;;;;;9.50;9.00;;;;;-146.80;100.00;64830.25;5056703;28;46169;-65
2021/09/30 08:18:12;;;;;;;;;14.25;12.25;;;;;-146.80;100.00;64830.25;5057224;28;45392;-67
2021/09/30 08:20:44;;;;;;;;;12.00;10.50;;;;;-146.80;100.00;64830.25;5057062;28;45421;-67
2021/09/30 08:23:12;;;;;;;;;15.50;12.00;;;;;-146.80;100.00;64830.25;5055781;28;45453;-67
2021/09/30 08:25:38;;;;;;;;;20.25;14.25;;;;;-146.80;100.00;64830.25;5055410;28;47339;-67
2021/09/30 08:28:04;;;;;;;;;8.25;6.75;;;;;-146.80;100.00;64830.25;5056399;28;45366;-67
2021/09/30 08:30:30;;;;;;;;;10.50;9.75;;;;;-146.80;100.00;64830.25;5072693;28;45284;-66
2021/09/30 08:32:55;;;;;;;;;5.75;5.00;;;;;-146.80;100.00;64830.25;5055425;28;45386;-65
2021/09/30 08:35:21;;;;;;;;;3.00;1.00;;;;;-146.80;100.00;64830.25;5056757;28;46447;-66
2021/09/30 08:37:46;;;;;;;;;10.00;6.00;;;;;-146.80;100.00;64830.25;5056469;28;45287;-68
2021/09/30 08:40:14;;;;;;;;;5.75;5.00;;;;;-146.80;100.00;64830.25;5056341;28;45170;-68
2021/09/30 08:42:39;;;;;;;;;9.25;6.50;;;;;-146.80;100.00;64830.25;5056652;28;45274;-69
2021/09/30 08:45:05;;;;;;;;;5.25;5.00;;;;;-146.80;100.00;64830.25;5055996;28;46213;-68
2021/09/30 08:47:31;;;;;;;;;8.75;7.00;;;;;-146.80;100.00;64830.25;5054941;28;45438;-68
2021/09/30 08:49:58;;;;;;;;;10.00;7.00;;;;;-146.80;100.00;64830.25;5055878;28;45396;-68
2021/09/30 08:52:23;;;;;;;;;7.50;5.50;;;;;-146.80;100.00;64830.25;5056504;28;45315;-67
2021/09/30 08:54:49;;;;;;;;;9.00;5.25;;;;;-146.80;100.00;64830.25;5056638;28;45498;-69
2021/09/30 08:57:14;;;;;;;;;8.75;5.25;;;;;-146.80;100.00;64830.25;5055923;28;45411;-70
2021/09/30 08:59:40;;;;;;;;;5.50;5.00;;;;;-146.80;100.00;64830.25;5055608;28;45842;-69
2021/09/30 09:02:17;;;;;;;;;4.50;3.50;;;;;-146.80;100.00;64830.25;5056137;28;45355;-69
2021/09/30 09:04:54;;;;;;;;;6.50;5.25;;;;;-146.80;100.00;64830.25;5056275;28;45683;-65
2021/09/30 09:07:26;;;;;;;;;3.75;3.75;;;;;-146.80;100.00;64830.25;5056073;28;45550;-67
2021/09/30 09:09:52;;;;;;;;;11.00;7.25;;;;;-146.80;100.00;64830.25;5055881;28;45229;-68
2021/09/30 09:12:18;;;;;;;;;2.00;2.00;;;;;-146.80;100.00;64830.25;5056044;28;45220;-65
2021/09/30 09:14:44;;;;;;;;;3.50;3.00;;;;;-146.80;100.00;64830.25;5054144;28;48293;-66
2021/09/30 09:17:12;;;;;;;;;10.00;6.75;;;;;-146.80;100.00;64830.25;5055351;28;45392;-66
2021/09/30 09:19:41;;;;;;;;;9.00;4.00;;;;;-146.80;100.00;64830.25;5055618;28;45465;-67
2021/09/30 09:22:16;;;;;;;;;8.75;7.25;;;;;-146.80;100.00;64830.25;5055781;28;45268;-66
2021/09/30 09:24:59;;;;;;;;;8.25;5.00;;;;;-146.80;100.00;64830.25;5053815;28;47379;-65
2021/09/30 09:27:47;;;;;;;;;22.75;22.25;;;;;-146.80;100.00;64830.25;5055834;28;45309;-67
2021/09/30 09:30:32;;;;;;;;;12.75;9.25;;;;;-146.80;100.00;64830.25;5070610;28;45327;-67
2021/09/30 09:33:18;;;;;;;;;26.75;21.50;;;;;-146.80;100.00;64830.25;5055842;28;45271;-67
2021/09/30 09:36:09;;;;;;;;;41.75;33.75;;;;;-146.80;100.00;64830.25;5055686;28;46439;-66
2021/09/30 09:38:43;;;;;;;;;9.00;5.75;;;;;-146.80;100.00;64830.25;5054451;28;45324;-69
2021/09/30 09:41:16;;;;;;;;;12.00;9.00;;;;;-146.80;100.00;64830.25;5055726;28;45315;-68
2021/09/30 09:43:45;;;;;;;;;9.25;8.25;;;;;-146.80;100.00;64830.25;5055696;28;45509;-68
2021/09/30 09:46:18;;;;;;;;;14.75;10.50;;;;;-146.80;100.00;64830.25;5053754;28;47253;-66
2021/09/30 09:48:55;;;;;;;;;5.50;4.00;;;;;-146.80;100.00;64830.25;5053610;28;45355;-67
2021/09/30 09:51:21;;;;;;;;;7.25;6.25;;;;;-146.80;100.00;64830.25;5055217;28;45467;-66
2021/09/30 09:53:47;;;;;;;;;4.75;4.75;;;;;-146.80;100.00;64830.25;5055204;28;45548;-67
2021/09/30 09:56:14;;;;;;;;;7.75;4.25;;;;;-146.80;100.00;64830.25;5055046;28;45428;-69
2021/09/30 09:58:45;;;;;;;;;4.75;4.00;;;;;-146.80;100.00;64830.25;5053557;28;45350;-67
2021/09/30 10:01:11;;;;;;;;;5.50;2.00;;;;;-146.80;100.00;64830.25;5054010;28;45274;-66
2021/09/30 10:03:37;;;;;;;;;4.25;2.75;;;;;-146.80;100.00;64830.25;5055233;28;45448;-65
2021/09/30 10:06:06;;;;;;;;;3.00;2.00;;;;;-146.80;100.00;64830.25;5053780;28;47229;-68
2021/09/30 10:08:32;;;;;;;;;2.00;2.00;;;;;-146.80;100.00;64830.25;5053632;28;45318;-68
2021/09/30 10:10:59;;;;;;;;;4.50;1.00;;;;;-146.80;100.00;64830.25;5053550;28;45290;-69
2021/09/30 10:13:27;;;;;;;;;2.25;2.25;;;;;-146.80;100.00;64830.25;5070516;28;45619;-66
2021/09/30 10:15:54;;;;;;;;;3.00;2.75;;;;;-146.80;100.00;64830.25;5052878;28;47077;-67
2021/09/30 10:18:23;;;;;;;;;4.00;3.25;;;;;-146.80;100.00;64830.25;5054571;27;45342;-66
2021/09/30 10:20:49;;;;;;;;;3.50;1.00;;;;;-146.80;100.00;64830.25;5054997;28;45431;-68
2021/09/30 10:23:21;;;;;;;;;4.50;2.00;;;;;-146.80;100.00;64830.25;5054702;28;45644;-68
2021/09/30 10:25:48;;;;;;;;;1.00;1.00;;;;;-146.80;100.00;64830.25;5054686;28;46560;-65
2021/09/30 10:28:15;;;;;;;;;1.00;1.00;;;;;-146.80;100.00;64830.25;5054681;28;45402;-65
2021/09/30 10:30:44;;;;;;;;;4.00;1.00;;;;;-146.80;100.00;64830.25;5054899;28;45272;-65
2021/09/30 10:33:11;;;;;;;;;2.00;1.00;;;;;-146.80;100.00;64830.25;5053593;28;45549;-65
2021/09/30 10:35:47;;;;;;;;;2.50;1.00;;;;;-146.80;100.00;64830.25;5054945;28;45376;-65
2021/09/30 10:38:25;;;;;;;;;2.00;1.00;;;;;-146.80;100.00;64830.25;5054694;28;45374;-68
2021/09/30 10:41:00;;;;;;;;;5.00;3.75;;;;;-146.80;100.00;64830.25;5054712;28;45249;-67
2021/09/30 10:43:27;;;;;;;;;7.00;2.50;;;;;-146.80;100.00;64830.25;5054568;28;45672;-66
2021/09/30 10:45:54;;;;;;;;;3.00;2.25;;;;;-146.80;100.00;64830.25;5052883;28;48260;-66
2021/09/30 10:48:31;;;;;;;;;5.00;3.25;;;;;-146.80;100.00;64830.25;5069517;28;45443;-67
2021/09/30 10:51:01;;;;;;;;;3.00;1.75;;;;;-146.80;100.00;64830.25;5070248;28;45458;-66
2021/09/30 10:53:45;;;;;;;;;3.00;2.00;;;;;-146.80;100.00;64830.25;5053812;28;45386;-66
2021/09/30 10:56:34;;;;;;;;;2.00;1.75;;;;;-146.80;100.00;64830.25;5070304;28;47766;-68
2021/09/30 10:59:19;;;;;;;;;9.25;7.00;;;;;-146.80;100.00;64830.25;5054103;28;45410;-67
2021/09/30 11:01:48;;;;;;;;;5.25;4.00;;;;;-146.80;100.00;64830.25;5053007;28;45497;-65
2021/09/30 11:04:15;;;;;;;;;5.50;3.25;;;;;-146.80;100.00;64830.25;5055237;28;45601;-68
2021/09/30 11:06:41;;;;;;;;;6.50;4.00;;;;;-146.80;100.00;64830.25;5057527;28;45660;-66
2021/09/30 11:09:22;;;;;;;;;3.00;1.00;;;;;-146.80;100.00;64830.25;5056439;28;45672;-67
2021/09/30 11:12:06;;;;;;;;;4.00;3.00;;;;;-146.80;100.00;64830.25;5057790;28;45321;-67
2021/09/30 11:14:32;;;;;;;;;3.50;2.75;;;;;-146.80;100.00;64830.25;5058180;28;45450;-66
2021/09/30 11:16:58;;;;;;;;;2.00;2.00;;;;;-146.80;100.00;64830.25;5057741;28;46183;-66
2021/09/30 11:19:43;;;;;;;;;2.75;2.75;;;;;-146.80;100.00;64830.25;5057925;28;45512;-66
2021/09/30 11:22:11;;;;;;;;;7.50;6.75;;;;;-146.80;100.00;64830.25;5058242;28;45379;-66
2021/09/30 11:24:53;;;;;;;;;4.25;2.25;;;;;-146.80;100.00;64830.25;5057102;28;45240;-67
2021/09/30 11:27:20;;;;;;;;;4.50;2.25;;;;;-146.80;100.00;64830.25;5056381;28;46266;-68
2021/09/30 11:29:46;;;;;;;;;1.00;1.00;;;;;-146.80;100.00;64830.25;5056206;28;45760;-66
2021/09/30 11:32:12;;;;;;;;;2.25;1.00;;;;;-146.80;100.00;64830.25;5057463;28;45225;-67
2021/09/30 11:34:50;;;;;;;;;2.50;2.00;;;;;-146.80;100.00;64830.25;5057841;28;45655;-66
2021/09/30 11:37:19;;;;;;;;;1.00;1.00;;;;;-146.80;100.00;64830.25;5073256;28;46285;-68
2021/09/30 11:39:49;;;;;;;;;3.00;2.00;;;;;-146.80;100.00;64830.25;5057410;28;45306;-67
2021/09/30 11:42:16;;;;;;;;;4.50;4.50;;;;;-146.80;100.00;64830.25;5056417;28;45217;-71
2021/09/30 11:44:58;;;;;;;;;3.75;2.00;;;;;-146.80;100.00;64830.25;5057332;28;45497;-66
2021/09/30 11:47:24;;;;;;;;;2.00;0.75;;;;;-146.80;100.00;64830.25;5057375;28;46683;-67
2021/09/30 11:49:49;;;;;;;;;1.50;1.50;;;;;-146.80;100.00;64830.25;5055300;28;45250;-66
2021/09/30 11:52:16;;;;;;;;;5.50;3.50;;;;;-146.80;100.00;64830.25;5056987;28;45405;-67
2021/09/30 11:54:42;;;;;;;;;1.25;1.25;;;;;-146.80;100.00;64830.25;5057711;28;45624;-66
2021/09/30 11:57:17;;;;;;;;;1.00;1.00;;;;;-146.80;100.00;64830.25;5055560;28;46526;-66
2021/09/30 11:59:42;;;;;;;;;2.25;2.00;;;;;-146.80;100.00;64830.25;5056653;28;45446;-66
2021/09/30 12:02:08;;;;;;;;;2.25;1.00;;;;;-146.80;100.00;64830.25;5057196;28;45393;-67
2021/09/30 12:04:36;;;;;;;;;1.00;1.00;;;;;-146.80;100.00;64830.25;5056858;28;45467;-64
2021/09/30 12:07:01;;;;;;;;;2.00;1.75;;;;;-146.80;100.00;64830.25;5057231;28;46527;-66
2021/09/30 12:09:32;;;;;;;;;4.75;1.00;;;;;-146.80;100.00;64830.25;5057093;27;45437;-64
2021/09/30 12:12:04;;;;;;;;;2.75;2.00;;;;;-146.80;100.00;64830.25;5056666;28;45275;-66
2021/09/30 12:14:38;;;;;;;;;1.00;1.00;;;;;-146.80;100.00;64830.25;5056700;28;45381;-67
2021/09/30 12:17:07;;;;;;;;;2.00;2.00;;;;;-146.80;100.00;64830.25;5054437;28;45514;-68
2021/09/30 12:19:36;;;;;;;;;1.25;1.00;;;;;-146.80;100.00;64830.25;5055825;28;45443;-67
2021/09/30 12:22:08;;;;;;;;;1.75;1.75;;;;;-146.80;100.00;64830.25;5056351;28;45444;-67
2021/09/30 12:24:34;;;;;;;;;4.25;1.25;;;;;-146.80;100.00;64830.25;5057020;28;45454;-66
2021/09/30 12:26:59;;;;;;;;;2.00;1.00;;;;;-146.80;100.00;64830.25;5055008;28;46353;-67
2021/09/30 12:29:26;;;;;;;;;1.00;1.00;;;;;-146.80;100.00;64830.25;5056132;28;45269;-68
2021/09/30 12:32:06;;;;;;;;;4.75;2.75;;;;;-146.80;100.00;64830.25;5055047;28;45308;-66
2021/09/30 12:34:32;;;;;;;;;2.00;2.00;;;;;-146.80;100.00;64830.25;5056492;28;45529;-66
2021/09/30 12:36:58;;;;;;;;;3.50;3.50;;;;;-146.80;100.00;64830.25;5054318;28;46886;-66
2021/09/30 12:39:30;;;;;;;;;0.50;0.50;;;;;-146.80;100.00;64830.25;5054294;28;45730;-65
2021/09/30 12:42:11;;;;;;;;;1.00;1.00;;;;;-146.80;100.00;64830.25;5054647;28;45410;-66
2021/09/30 12:44:41;;;;;;;;;3.75;3.00;;;;;-146.80;100.00;64830.25;5054566;28;45332;-67
2021/09/30 12:47:07;;;;;;;;;3.00;2.00;;;;;-146.80;100.00;64830.25;5055998;28;45398;-69
2021/09/30 12:49:33;;;;;;;;;3.00;1.25;;;;;-146.80;100.00;64830.25;5055898;28;45334;-65
2021/09/30 12:52:21;;;;;;;;;5.50;3.00;;;;;-146.80;100.00;64830.25;5055941;28;45423;-66
2021/09/30 12:54:47;;;;;;;;;2.00;1.00;;;;;-146.80;100.00;64830.25;5055786;28;45384;-65
2021/09/30 12:57:13;;;;;;;;;2.25;1.00;;;;;-146.80;100.00;64830.25;5056270;28;45284;-65
2021/09/30 12:59:38;;;;;;;;;0.00;0.00;;;;;-146.80;100.00;64830.25;5056067;28;45224;-67
2021/09/30 13:02:04;;;;;;;;;0.25;0.25;;;;;-146.80;100.00;64830.25;5056229;28;45256;-65
2021/09/30 13:04:33;;;;;;;;;2.00;1.00;;;;;-146.80;100.00;64830.25;5055269;28;45486;-68
2021/09/30 13:07:04;;;;;;;;;3.00;1.00;;;;;-146.80;100.00;64830.25;5055626;28;46942;-68
2021/09/30 13:09:32;;;;;;;;;1.00;1.00;;;;;-146.80;100.00;64830.25;5055759;28;45463;-66
2021/09/30 13:12:03;;;;;;;;;1.75;1.00;;;;;-146.80;100.00;64830.25;5055900;28;45338;-67
2021/09/30 13:14:34;;;;;;;;;2.75;2.00;;;;;-146.80;100.00;64830.25;5054576;28;45374;-65
2021/09/30 13:17:05;;;;;;;;;3.25;0.75;;;;;-146.80;100.00;64830.25;5055452;28;45424;-66
2021/09/30 13:20:06;;;;;;;;;0.50;0.50;;;;;-146.80;100.00;64830.25;5055635;28;45500;-69
2021/09/30 13:22:34;;;;;;;;;2.25;2.00;;;;;-146.80;100.00;64830.25;5054602;28;45390;-68
2021/09/30 13:25:16;;;;;;;;;2.75;1.00;;;;;-146.80;100.00;64830.25;5056056;28;45371;-65
2021/09/30 13:27:43;;;;;;;;;1.00;1.00;;;;;-146.80;100.00;64830.25;5054755;28;45413;-67
2021/09/30 13:30:15;;;;;;;;;6.50;4.50;;;;;-146.80;100.00;64830.25;5054202;28;45332;-68
2021/09/30 13:32:41;;;;;;;;;1.00;0.75;;;;;-146.80;100.00;64830.25;5054489;28;45328;-70
2021/09/30 13:35:09;;;;;;;;;4.00;2.00;;;;;-146.80;100.00;64830.25;5054713;28;45565;-65
2021/09/30 13:37:35;;;;;;;;;3.75;1.00;;;;;-146.80;100.00;64830.25;5055178;28;45260;-66
2021/09/30 13:40:02;;;;;;;;;2.75;2.75;;;;;-146.80;100.00;64830.25;5055259;28;45403;-66
2021/09/30 13:42:30;;;;;;;;;1.50;1.50;;;;;-146.80;100.00;64830.25;5053932;28;45441;-67
2021/09/30 13:44:56;;;;;;;;;4.00;2.00;;;;;-146.80;100.00;64830.25;5055642;28;45484;-65
2021/09/30 13:47:23;;;;;;;;;0.00;0.00;;;;;-146.80;100.00;64830.25;5055121;28;46650;-67
2021/09/30 13:49:48;;;;;;;;;1.00;1.00;;;;;-146.80;100.00;64830.25;5055341;28;45409;-67
2021/09/30 13:52:14;;;;;;;;;1.75;1.75;;;;;-146.80;100.00;64830.25;5055698;28;45306;-65
2021/09/30 13:54:39;;;;;;;;;5.00;2.00;;;;;-146.80;100.00;64830.25;5055945;28;45338;-65
2021/09/30 13:57:06;;;;;;;;;0.75;0.75;;;;;-146.80;100.00;64830.25;5054025;28;48207;-68
2021/09/30 13:59:31;;;;;;;;;1.00;0.00;;;;;-146.80;100.00;64830.25;5054169;28;45492;-64
2021/09/30 14:01:56;;;;;;;;;0.00;0.00;;;;;-146.80;100.00;64830.25;5054551;28;45390;-65
2021/09/30 14:04:22;;;;;;;;;1.00;1.00;;;;;-146.80;100.00;64830.25;5056001;28;45647;-66
2021/09/30 14:06:48;;;;;;;;;1.25;1.25;;;;;-146.80;100.00;64830.25;5055312;27;45445;-68
2021/09/30 14:09:14;;;;;;;;;1.00;1.00;;;;;-146.80;100.00;64830.25;5055675;28;45491;-68